Time;durP1;ratioP1;P1;durP2;ratioP2;P2;SDS_P1;SDS_P2;PMS_P1;PMS_P2;Temp;Humidity;BMP_temperature;BMP_pressure;BME280_temperature;BME280_humidity;BME280_pressure;Samples;Min_cycle;Max_cycle;Signal;HPM_P1;HPM_P2
2022/03/21 00:00:46;;;;;;;9.65;6.25;;;;;;;8.13;27.62;102867.38;5093675;28;20044;-71
2022/03/21 00:03:17;;;;;;;9.80;5.43;;;;;;;8.16;28.52;102866.97;5095064;28;20043;-71
2022/03/21 00:05:46;;;;;;;8.45;5.55;;;;;;;8.12;27.42;102860.25;5094261;28;20051;-71
2022/03/21 00:08:17;;;;;;;9.57;5.75;;;;;;;8.10;27.72;102863.16;5094008;28;20047;-71
2022/03/21 00:10:45;;;;;;;8.43;6.10;;;;;;;8.13;27.55;102864.66;5093952;28;20052;-71
2022/03/21 00:13:17;;;;;;;9.60;5.68;;;;;;;8.08;28.21;102865.28;5094172;28;20086;-71
2022/03/21 00:15:52;;;;;;;13.73;5.63;;;;;;;8.04;27.05;102862.13;5080455;28;20487;-71
2022/03/21 00:18:23;;;;;;;9.27;5.63;;;;;;;7.96;27.85;102854.13;5093714;28;20056;-71
2022/03/21 00:20:53;;;;;;;8.77;5.35;;;;;;;7.90;27.62;102858.53;5093833;28;20055;-71
2022/03/21 00:23:25;;;;;;;5.95;4.75;;;;;;;7.93;27.44;102852.63;5094387;28;20052;-71
2022/03/21 00:25:53;;;;;;;8.95;5.05;;;;;;;7.91;27.39;102853.88;5079791;28;20046;-71
2022/03/21 00:28:21;;;;;;;10.27;5.70;;;;;;;7.88;27.17;102854.31;5093581;28;20048;-71
2022/03/21 00:30:50;;;;;;;8.10;5.05;;;;;;;7.85;26.52;102854.72;5093515;28;20063;-71
2022/03/21 00:33:18;;;;;;;7.82;5.05;;;;;;;7.82;27.97;102853.25;5076192;28;20040;-71
2022/03/21 00:35:48;;;;;;;7.00;4.70;;;;;;;7.85;26.70;102857.44;5076212;28;20032;-71
2022/03/21 00:38:18;;;;;;;8.07;4.68;;;;;;;7.84;26.76;102862.06;5092433;28;20494;-71
2022/03/21 00:40:47;;;;;;;7.47;4.45;;;;;;;7.82;26.83;102866.03;5088493;28;20060;-71
2022/03/21 00:43:19;;;;;;;7.20;4.90;;;;;;;7.82;26.83;102861.41;5094082;28;20043;-71
2022/03/21 00:45:49;;;;;;;6.53;4.35;;;;;;;7.77;26.69;102858.50;5093489;28;20081;-71
2022/03/21 00:48:18;;;;;;;7.63;5.30;;;;;;;7.74;26.45;102848.84;5093208;28;20040;-71
2022/03/21 00:50:46;;;;;;;7.30;4.38;;;;;;;7.70;26.35;102855.72;5092884;28;20048;-71
2022/03/21 00:53:16;;;;;;;8.40;4.90;;;;;;;7.72;25.93;102856.34;5092804;28;20044;-71
2022/03/21 00:55:46;;;;;;;6.63;4.80;;;;;;;7.69;26.02;102861.38;5093757;28;20066;-71
2022/03/21 00:58:15;;;;;;;8.52;4.63;;;;;;;7.68;25.58;102854.25;5093119;28;20044;-71
2022/03/21 01:00:44;;;;;;;8.52;4.70;;;;;;;7.62;25.99;102856.75;5093710;28;20056;-71
2022/03/21 01:03:12;;;;;;;6.60;4.72;;;;;;;7.65;25.59;102860.94;5092611;28;20044;-71
2022/03/21 01:05:40;;;;;;;7.88;5.07;;;;;;;7.62;26.20;102855.91;5092867;28;20052;-71
2022/03/21 01:08:09;;;;;;;6.32;4.47;;;;;;;7.56;26.01;102851.25;5092776;28;20065;-71
2022/03/21 01:10:37;;;;;;;8.40;4.53;;;;;;;7.48;25.83;102849.56;5092777;28;20059;-71
2022/03/21 01:13:05;;;;;;;6.35;3.95;;;;;;;7.49;26.30;102862.16;5091407;28;20048;-71
2022/03/21 01:15:34;;;;;;;8.57;5.60;;;;;;;7.48;26.29;102850.41;5091842;28;20047;-71
2022/03/21 01:18:02;;;;;;;8.27;5.20;;;;;;;7.49;26.15;102845.81;5093155;28;20055;-71
2022/03/21 01:20:29;;;;;;;7.28;4.72;;;;;;;7.58;26.16;102854.63;5092042;28;20052;-71
2022/03/21 01:22:57;;;;;;;10.32;5.28;;;;;;;7.57;25.89;102844.78;5093303;28;20051;-71
2022/03/21 01:25:25;;;;;;;8.57;4.97;;;;;;;7.53;26.02;102845.19;5092154;28;20495;-71
2022/03/21 01:27:53;;;;;;;7.70;4.80;;;;;;;7.52;26.36;102846.22;5092471;28;20052;-71
2022/03/21 01:30:21;;;;;;;7.88;4.65;;;;;;;7.58;25.41;102843.75;5093028;28;20051;-71
2022/03/21 01:32:49;;;;;;;8.98;4.55;;;;;;;7.56;25.99;102843.94;5092334;28;20490;-71
2022/03/21 01:35:18;;;;;;;8.10;5.10;;;;;;;7.54;25.66;102840.59;5092066;28;20051;-70
2022/03/21 01:37:46;;;;;;;8.10;5.00;;;;;;;7.55;25.66;102850.44;5091986;28;20047;-70
2022/03/21 01:40:16;;;;;;;8.10;4.70;;;;;;;7.53;26.12;102853.34;5091956;28;20055;-71
2022/03/21 01:42:46;;;;;;;8.07;5.30;;;;;;;7.59;26.11;102850.88;5092445;28;20060;-71
2022/03/21 01:45:17;;;;;;;8.35;4.45;;;;;;;7.59;25.95;102853.59;5092112;28;20051;-70
2022/03/21 01:47:46;;;;;;;9.07;5.35;;;;;;;7.53;25.78;102830.72;5091315;28;20064;-70
2022/03/21 01:50:14;;;;;;;7.90;5.25;;;;;;;7.50;25.75;102845.59;5090968;28;20048;-70
2022/03/21 01:52:43;;;;;;;10.73;4.60;;;;;;;7.39;26.10;102835.28;5090428;28;20063;-71
2022/03/21 01:58:00;;;;;;;6.97;4.30;;;;;;;7.49;25.94;102843.91;5080254;28;20056;-70
2022/03/21 02:00:28;;;;;;;7.90;4.80;;;;;;;7.47;26.33;102831.53;5092366;28;20044;-71
2022/03/21 02:02:56;;;;;;;8.05;4.88;;;;;;;7.46;25.91;102841.59;5092491;28;20036;-71
2022/03/21 02:05:24;;;;;;;6.88;4.80;;;;;;;7.45;25.82;102831.75;5092519;28;20522;-70
2022/03/21 02:07:53;;;;;;;7.60;4.57;;;;;;;7.53;25.39;102828.00;5091664;28;20495;-71
2022/03/21 02:10:21;;;;;;;8.73;5.30;;;;;;;7.50;25.59;102834.72;5091807;28;20376;-70
2022/03/21 02:12:49;;;;;;;5.97;4.03;;;;;;;7.53;25.96;102842.47;5092163;28;20047;-70
2022/03/21 02:15:19;;;;;;;9.95;5.55;;;;;;;7.42;25.49;102845.75;5092550;28;20048;-70
2022/03/21 02:17:48;;;;;;;7.93;4.45;;;;;;;7.43;26.63;102841.16;5071622;28;20511;-71
2022/03/21 02:20:18;;;;;;;9.40;5.20;;;;;;;7.41;26.21;102835.91;5091611;28;20045;-70
2022/03/21 02:22:58;;;;;;;7.82;5.00;;;;;;;7.32;25.91;102840.69;5091945;28;20048;-71
2022/03/21 02:25:39;;;;;;;9.45;5.13;;;;;;;7.26;25.92;102847.81;5091436;28;20044;-71
2022/03/21 02:28:12;;;;;;;5.53;4.40;;;;;;;7.28;25.85;102835.84;5091314;28;20051;-70
2022/03/21 02:30:48;;;;;;;7.75;4.85;;;;;;;7.18;26.02;102837.06;5091522;28;20055;-71
2022/03/21 02:33:17;;;;;;;7.22;4.88;;;;;;;7.15;26.02;102840.19;5091912;28;20036;-70
2022/03/21 02:35:50;;;;;;;6.13;4.60;;;;;;;7.11;26.10;102845.19;5092207;28;20055;-70
2022/03/21 02:38:19;;;;;;;8.32;4.68;;;;;;;7.13;26.16;102834.94;5091839;28;20040;-70
2022/03/21 02:40:48;;;;;;;5.82;4.35;;;;;;;7.07;26.04;102832.16;5091042;28;20044;-71
2022/03/21 02:43:16;;;;;;;7.38;4.72;;;;;;;7.00;26.58;102826.69;5091189;28;20051;-71
2022/03/21 02:45:44;;;;;;;8.15;4.97;;;;;;;6.86;26.51;102832.03;5092063;28;20052;-72
2022/03/21 02:48:13;;;;;;;9.10;5.07;;;;;;;6.83;26.91;102837.03;5091537;28;20052;-71
2022/03/21 02:50:43;;;;;;;8.63;5.22;;;;;;;6.81;27.10;102831.81;5090969;28;20063;-71
2022/03/21 02:53:12;;;;;;;8.30;5.18;;;;;;;6.72;27.30;102839.28;5091802;28;20048;-71
2022/03/21 02:55:41;;;;;;;7.65;4.70;;;;;;;6.67;27.19;102839.03;5091565;28;20059;-72
2022/03/21 02:58:10;;;;;;;6.13;4.10;;;;;;;6.70;27.53;102833.19;5091857;28;20081;-72
2022/03/21 03:00:38;;;;;;;7.20;4.78;;;;;;;6.61;27.61;102839.84;5092548;28;20056;-72
2022/03/21 03:03:06;;;;;;;5.78;4.80;;;;;;;6.63;27.63;102843.19;5095212;28;20517;-72
2022/03/21 03:05:34;;;;;;;6.65;4.85;;;;;;;6.64;27.93;102847.59;5094624;28;20055;-71
2022/03/21 03:08:03;;;;;;;11.00;4.97;;;;;;;6.66;27.66;102845.53;5095188;28;20071;-72
2022/03/21 03:10:31;;;;;;;6.82;4.75;;;;;;;6.63;27.86;102848.63;5095597;28;20067;-71
2022/03/21 03:12:59;;;;;;;9.73;5.22;;;;;;;6.57;28.18;102841.25;5090985;28;20524;-71
2022/03/21 03:15:28;;;;;;;8.18;4.85;;;;;;;6.47;28.42;102844.31;5095128;28;20070;-72
2022/03/21 03:17:56;;;;;;;9.98;5.55;;;;;;;6.45;28.18;102840.94;5092788;28;20388;-71
2022/03/21 03:20:24;;;;;;;7.10;4.32;;;;;;;6.47;28.31;102851.63;5095082;28;20478;-72
2022/03/21 03:22:53;;;;;;;8.80;4.97;;;;;;;6.53;28.42;102848.13;5094285;28;20048;-71
2022/03/21 03:25:21;;;;;;;6.68;4.60;;;;;;;6.50;28.16;102838.47;5095423;28;20067;-71
2022/03/21 03:27:49;;;;;;;7.93;5.22;;;;;;;6.52;28.59;102847.31;5094879;28;20040;-71
2022/03/21 03:30:17;;;;;;;10.70;5.70;;;;;;;6.44;29.11;102844.69;5094431;28;20040;-71
2022/03/21 03:32:47;;;;;;;7.50;4.72;;;;;;;6.39;28.84;102841.72;5076875;28;20048;-72
2022/03/21 03:35:15;;;;;;;9.77;5.88;;;;;;;6.37;28.83;102838.38;5094165;28;20415;-72
2022/03/21 03:37:43;;;;;;;7.68;4.97;;;;;;;6.28;29.26;102834.94;5094907;28;20048;-72
2022/03/21 03:40:12;;;;;;;10.27;5.15;;;;;;;6.27;29.12;102838.69;5095220;28;20395;-72
2022/03/21 03:42:40;;;;;;;8.25;5.57;;;;;;;6.21;29.53;102834.03;5095358;28;20051;-72
2022/03/21 03:45:09;;;;;;;9.00;5.30;;;;;;;6.12;29.95;102841.50;5094643;28;20063;-72
2022/03/21 03:47:37;;;;;;;8.50;5.80;;;;;;;6.05;30.35;102835.97;5094215;28;20048;-72
2022/03/21 03:50:06;;;;;;;7.45;4.63;;;;;;;6.05;30.24;102834.13;5093803;28;20384;-72
2022/03/21 03:52:34;;;;;;;8.30;5.05;;;;;;;6.05;29.97;102833.25;5094254;28;20052;-72
2022/03/21 03:55:02;;;;;;;5.85;4.60;;;;;;;6.06;29.78;102840.38;5094313;28;20075;-72
2022/03/21 03:57:30;;;;;;;8.85;5.43;;;;;;;6.04;30.17;102837.88;5094025;28;20048;-72
2022/03/21 03:59:58;;;;;;;7.00;4.85;;;;;;;5.99;30.21;102837.56;5094534;28;20056;-72
2022/03/21 04:02:26;;;;;;;10.55;5.30;;;;;;;5.99;30.29;102842.16;5094788;28;20040;-73
2022/03/21 04:04:54;;;;;;;7.30;4.93;;;;;;;6.00;30.42;102841.97;5093984;28;20525;-72
2022/03/21 04:07:24;;;;;;;8.48;5.35;;;;;;;5.96;30.56;102850.72;5094762;28;20044;-72
2022/03/21 04:09:52;;;;;;;11.00;5.38;;;;;;;5.99;30.42;102844.88;5094192;28;20426;-72
2022/03/21 04:12:20;;;;;;;9.05;5.43;;;;;;;5.90;30.83;102838.72;5094168;28;20048;-72
2022/03/21 04:14:49;;;;;;;7.95;5.78;;;;;;;5.81;31.07;102839.88;5076003;28;20051;-72
2022/03/21 04:17:17;;;;;;;11.10;4.75;;;;;;;5.69;32.08;102843.09;5093628;28;20512;-72
2022/03/21 04:19:45;;;;;;;12.35;5.40;;;;;;;5.65;31.59;102845.34;5093788;28;20056;-72
2022/03/21 04:22:13;;;;;;;11.25;5.25;;;;;;;5.50;32.51;102845.38;5075337;28;20406;-72
2022/03/21 04:24:41;;;;;;;10.68;5.18;;;;;;;5.47;31.91;102856.63;5091643;28;20043;-72
2022/03/21 04:27:08;;;;;;;10.45;5.57;;;;;;;5.43;32.06;102849.88;5094260;28;20043;-72
2022/03/21 04:29:37;;;;;;;10.48;5.32;;;;;;;5.37;31.80;102840.63;5093495;28;20063;-72
2022/03/21 04:32:05;;;;;;;10.93;5.45;;;;;;;5.31;32.02;102856.81;5093891;28;20685;-72
2022/03/21 04:34:33;;;;;;;12.95;5.47;;;;;;;5.33;32.07;102850.16;5093195;28;20075;-72
2022/03/21 04:37:02;;;;;;;16.65;5.45;;;;;;;5.30;32.09;102858.69;5093385;28;20052;-72
2022/03/21 04:39:30;;;;;;;11.35;5.85;;;;;;;5.25;32.15;102858.41;5093018;28;20048;-72
2022/03/21 04:41:59;;;;;;;7.75;5.90;;;;;;;5.16;32.83;102852.25;5093845;28;20067;-72
2022/03/21 04:44:27;;;;;;;8.00;5.18;;;;;;;5.09;32.80;102854.84;5092973;28;20379;-72
2022/03/21 04:46:55;;;;;;;11.27;5.07;;;;;;;5.09;33.55;102860.28;5093534;28;20048;-72
2022/03/21 04:49:23;;;;;;;8.98;5.85;;;;;;;5.11;32.62;102858.25;5075709;28;20047;-72
2022/03/21 04:51:51;;;;;;;8.48;5.38;;;;;;;5.19;32.82;102857.28;5093813;28;20063;-72
2022/03/21 04:54:19;;;;;;;10.38;5.72;;;;;;;5.20;33.33;102855.41;5092872;28;20475;-72
2022/03/21 04:56:47;;;;;;;7.93;5.10;;;;;;;5.24;32.87;102867.59;5087369;28;20043;-72
2022/03/21 04:59:15;;;;;;;8.93;4.90;;;;;;;5.24;32.87;102867.59;5086040;28;20055;-72
2022/03/21 05:01:43;;;;;;;8.57;5.63;;;;;;;5.26;32.40;102865.53;5093558;28;20044;-72
2022/03/21 05:04:11;;;;;;;10.68;5.60;;;;;;;5.16;32.38;102867.66;5093535;28;20047;-72
2022/03/21 05:06:39;;;;;;;9.88;5.03;;;;;;;5.18;32.46;102868.34;5092705;28;20499;-72
2022/03/21 05:09:07;;;;;;;10.88;5.78;;;;;;;5.13;32.43;102870.78;5092812;28;20055;-72
2022/03/21 05:11:35;;;;;;;8.35;5.35;;;;;;;4.97;33.04;102872.63;5092452;28;20431;-71
2022/03/21 05:14:04;;;;;;;8.68;5.68;;;;;;;4.79;33.69;102876.53;5092803;28;20129;-72
2022/03/21 05:16:32;;;;;;;12.02;6.20;;;;;;;4.73;33.57;102879.97;5092590;28;20056;-72
2022/03/21 05:19:00;;;;;;;11.57;5.63;;;;;;;4.66;33.81;102873.59;5093459;28;20491;-72
2022/03/21 05:21:29;;;;;;;9.60;5.80;;;;;;;4.76;33.37;102881.47;5091175;28;20498;-72
2022/03/21 05:32:16;;;;;;;11.32;5.97;;;;;;;4.88;32.86;102895.47;5090387;28;20047;-72
2022/03/21 05:37:31;;;;;;;8.82;5.75;;;;;;;4.82;33.33;102894.31;5089897;28;20055;-72
2022/03/21 05:42:45;;;;;;;9.30;5.82;;;;;;;4.93;34.03;102893.00;5085174;28;20048;-72
2022/03/21 05:45:19;;;;;;;12.35;5.90;;;;;;;4.86;35.10;102892.06;5089672;28;20040;-72
2022/03/21 05:50:38;;;;;;;15.50;5.80;;;;;;;5.00;33.78;102893.13;5088857;28;20056;-72
2022/03/21 05:53:09;;;;;;;10.95;6.07;;;;;;;5.02;33.33;102902.75;5088108;28;20399;-72
2022/03/21 05:55:37;;;;;;;8.55;6.18;;;;;;;5.10;33.62;102899.97;5090686;28;20056;-72
2022/03/21 05:58:05;;;;;;;8.32;5.93;;;;;;;5.22;33.26;102891.34;5088925;28;20051;-72
2022/03/21 06:00:35;;;;;;;9.32;5.68;;;;;;;5.45;35.05;102906.72;5090081;28;20052;-71
2022/03/21 06:03:04;;;;;;;10.75;5.75;;;;;;;5.61;34.82;102897.53;5068442;28;20051;-70
2022/03/21 06:05:32;;;;;;;10.43;7.20;;;;;;;5.70;34.64;102909.13;5090028;28;20052;-74
2022/03/21 06:08:01;;;;;;;8.77;5.95;;;;;;;5.74;35.17;102902.28;5089706;28;20067;-73
2022/03/21 06:10:29;;;;;;;10.23;6.72;;;;;;;5.78;35.54;102900.88;5072638;28;20044;-74
2022/03/21 06:12:57;;;;;;;16.10;6.70;;;;;;;5.63;37.21;102909.06;5085321;28;20309;-72
2022/03/21 06:15:26;;;;;;;14.68;7.00;;;;;;;5.60;37.46;102909.44;5087343;28;20040;-72
2022/03/21 06:17:59;;;;;;;15.23;6.13;;;;;;;5.75;38.88;102912.13;5087294;28;20047;-79
2022/03/21 06:20:28;;;;;;;13.50;7.60;;;;;;;6.13;37.93;102909.28;5046664;28;20048;-80
2022/03/21 06:22:57;;;;;;;11.23;6.68;;;;;;;6.35;38.51;102917.44;5041944;28;20054;-80
2022/03/21 06:25:25;;;;;;;21.33;8.25;;;;;;;6.58;38.25;102916.41;5045170;28;20450;-81
2022/03/21 06:27:53;;;;;;;17.45;8.18;;;;;;;6.76;37.99;102921.38;5039439;28;20399;-81
2022/03/21 06:30:21;;;;;;;13.90;8.40;;;;;;;6.81;37.89;102918.91;5019545;28;20044;-80
2022/03/21 06:32:50;;;;;;;15.90;7.90;;;;;;;6.86;37.92;102923.75;5027251;28;20051;-80
2022/03/21 06:35:18;;;;;;;18.20;8.18;;;;;;;7.03;37.92;102926.19;5049819;28;20048;-80
2022/03/21 06:37:47;;;;;;;19.52;8.35;;;;;;;7.09;37.92;102922.69;5028658;28;20041;-80
2022/03/21 06:40:20;;;;;;;20.35;9.45;;;;;;;6.99;38.87;102931.16;5030061;28;20052;-81
2022/03/21 06:42:48;;;;;;;20.77;8.43;;;;;;;6.94;39.10;102930.94;5047404;28;20044;-80
2022/03/21 06:45:17;;;;;;;12.15;8.23;;;;;;;6.94;39.03;102934.50;5049072;28;20048;-73
2022/03/21 06:47:45;;;;;;;14.30;8.18;;;;;;;6.84;38.81;102936.72;5091530;28;20047;-73
2022/03/21 06:50:13;;;;;;;17.83;8.50;;;;;;;6.80;39.40;102928.09;5090967;28;20044;-73
2022/03/21 06:52:43;;;;;;;14.77;8.05;;;;;;;6.86;39.05;102932.75;5090609;28;20059;-73
2022/03/21 06:55:12;;;;;;;13.40;8.18;;;;;;;7.22;37.85;102932.81;5074019;28;20446;-73
2022/03/21 06:57:40;;;;;;;14.25;8.93;;;;;;;7.24;37.88;102944.38;5090488;28;20525;-73
2022/03/21 07:00:09;;;;;;;18.00;8.90;;;;;;;7.24;38.61;102941.63;5091403;28;20398;-74
2022/03/21 07:02:37;;;;;;;14.23;8.63;;;;;;;7.41;37.54;102947.59;5091125;28;20044;-73
2022/03/21 07:05:07;;;;;;;11.35;7.70;;;;;;;7.54;36.92;102946.84;5090926;28;20047;-73
2022/03/21 07:07:35;;;;;;;12.50;7.75;;;;;;;7.62;36.81;102956.75;5091450;28;20063;-73
2022/03/21 07:10:09;;;;;;;16.92;8.68;;;;;;;7.67;37.17;102962.41;5091169;28;20490;-73
2022/03/21 07:12:38;;;;;;;15.83;8.87;;;;;;;7.87;36.24;102961.69;5090660;28;20059;-74
2022/03/21 07:15:06;;;;;;;17.92;9.05;;;;;;;7.97;36.68;102962.13;5090533;28;20305;-73
2022/03/21 07:17:34;;;;;;;15.43;8.60;;;;;;;8.05;36.33;102959.25;5072504;28;20039;-73
2022/03/21 07:20:03;;;;;;;16.15;8.57;;;;;;;7.90;36.43;102962.13;5091119;28;20043;-73
2022/03/21 07:22:31;;;;;;;20.80;9.30;;;;;;;8.22;36.99;102958.03;5090663;28;20051;-73
2022/03/21 07:24:59;;;;;;;14.13;8.80;;;;;;;8.30;37.02;102955.97;5091364;28;20044;-73
2022/03/21 07:27:27;;;;;;;16.38;9.52;;;;;;;8.58;35.92;102957.75;5090668;28;20055;-74
2022/03/21 07:29:55;;;;;;;18.00;8.43;;;;;;;8.78;34.77;102953.31;5091248;28;20048;-74
2022/03/21 07:32:23;;;;;;;15.60;8.48;;;;;;;8.82;35.21;102960.91;5090465;28;20059;-73
2022/03/21 07:34:51;;;;;;;17.10;8.88;;;;;;;9.04;34.10;102960.69;5089853;28;20048;-73
2022/03/21 07:37:19;;;;;;;18.13;8.30;;;;;;;8.99;33.08;102960.47;5090936;28;20036;-73
2022/03/21 07:39:47;;;;;;;17.50;8.32;;;;;;;9.24;33.38;102962.59;5090753;28;20399;-73
2022/03/21 07:42:16;;;;;;;17.60;8.30;;;;;;;9.27;32.34;102968.47;5090231;28;20062;-74
2022/03/21 07:47:31;;;;;;;16.48;8.10;;;;;;;9.23;30.83;102958.16;5092617;28;20498;-74
2022/03/21 07:49:59;;;;;;;13.57;7.70;;;;;;;9.20;30.47;102964.03;5094010;28;20044;-74
2022/03/21 07:52:27;;;;;;;14.23;7.40;;;;;;;9.51;30.74;102962.53;5093831;28;20487;-74
2022/03/21 07:54:55;;;;;;;9.77;6.93;;;;;;;9.87;27.86;102965.78;5094821;28;20090;-74
2022/03/21 07:57:24;;;;;;;10.82;6.72;;;;;;;10.03;27.76;102968.00;5093853;28;20376;-73
2022/03/21 07:59:53;;;;;;;11.50;7.07;;;;;;;10.38;28.47;102972.28;5093597;28;20044;-74
2022/03/21 08:02:22;;;;;;;12.27;6.60;;;;;;;10.81;26.85;102967.16;5093738;28;20047;-74
2022/03/21 08:04:50;;;;;;;12.50;6.60;;;;;;;10.22;26.74;102960.78;5094632;28;20055;-73
2022/03/21 08:07:24;;;;;;;9.45;6.65;;;;;;;10.44;26.12;102965.09;5093697;28;20048;-74
2022/03/21 08:09:53;;;;;;;10.02;6.28;;;;;;;10.82;25.28;102963.38;5093651;28;20043;-74
2022/03/21 08:12:20;;;;;;;8.93;5.85;;;;;;;10.87;26.54;102969.84;5094155;28;20044;-73
2022/03/21 08:14:48;;;;;;;8.05;6.13;;;;;;;11.11;24.58;102970.06;5093460;28;20406;-73
2022/03/21 08:17:18;;;;;;;9.40;5.95;;;;;;;11.32;24.72;102964.38;5094003;28;20540;-74
2022/03/21 08:19:45;;;;;;;9.05;6.47;;;;;;;11.38;25.13;102966.22;5093707;28;20048;-74
2022/03/21 08:22:15;;;;;;;9.57;5.50;;;;;;;11.51;23.67;102965.25;5075311;28;20040;-74
2022/03/21 08:24:48;;;;;;;8.00;5.65;;;;;;;11.08;24.45;102966.94;5094209;28;20052;-74
2022/03/21 08:27:16;;;;;;;8.30;5.78;;;;;;;11.54;23.87;102965.63;5092963;28;20051;-74
2022/03/21 08:29:44;;;;;;;9.80;5.80;;;;;;;11.93;23.63;102972.81;5093269;28;20048;-74
2022/03/21 08:32:12;;;;;;;7.07;5.05;;;;;;;11.87;23.60;102962.75;5092574;28;20410;-74
2022/03/21 08:34:40;;;;;;;8.27;5.43;;;;;;;12.06;23.68;102961.69;5092874;28;20051;-75
2022/03/21 08:37:08;;;;;;;8.48;5.30;;;;;;;12.09;23.41;102965.88;5092737;28;20047;-75
2022/03/21 08:39:36;;;;;;;9.52;5.97;;;;;;;12.07;23.15;102957.88;5093886;28;20040;-75
2022/03/21 08:42:04;;;;;;;8.13;5.78;;;;;;;12.14;22.74;102967.91;5092893;28;20048;-75
2022/03/21 08:44:32;;;;;;;9.07;5.88;;;;;;;12.05;22.39;102956.41;5092895;28;20055;-75
2022/03/21 08:47:00;;;;;;;8.38;5.65;;;;;;;12.07;21.57;102962.50;5092974;28;20052;-75
2022/03/21 08:49:28;;;;;;;8.38;5.60;;;;;;;12.38;22.31;102965.25;5092838;28;20059;-75
2022/03/21 08:52:01;;;;;;;7.43;5.60;;;;;;;12.31;22.74;102957.97;5092771;28;20052;-73
2022/03/21 08:54:29;;;;;;;7.50;5.35;;;;;;;12.72;21.61;102962.84;5075432;28;20522;-74
2022/03/21 08:56:57;;;;;;;6.72;5.00;;;;;;;12.31;22.31;102957.97;5092756;28;20055;-74
2022/03/21 08:59:25;;;;;;;6.38;5.25;;;;;;;12.62;21.78;102956.00;5092036;28;20079;-74
2022/03/21 09:01:53;;;;;;;11.07;5.13;;;;;;;12.69;22.48;102960.56;5093030;28;20052;-74
2022/03/21 09:04:22;;;;;;;7.97;5.57;;;;;;;13.09;22.42;102954.41;5075427;28;20047;-74
2022/03/21 09:06:50;;;;;;;9.65;6.40;;;;;;;12.82;21.03;102949.38;5093033;28;20047;-74
2022/03/21 09:09:18;;;;;;;8.43;5.30;;;;;;;12.57;21.20;102950.38;5093708;28;20036;-74
2022/03/21 09:11:51;;;;;;;9.27;5.15;;;;;;;12.46;21.77;102949.28;5093037;28;20052;-74
2022/03/21 09:14:19;;;;;;;6.97;5.90;;;;;;;12.74;22.26;102961.53;5093265;28;20059;-74
2022/03/21 09:16:50;;;;;;;7.82;5.53;;;;;;;12.34;22.80;102957.50;5092655;28;20478;-74
2022/03/21 09:19:19;;;;;;;9.35;6.05;;;;;;;12.57;21.80;102957.81;5093348;28;20510;-74
2022/03/21 09:21:48;;;;;;;8.02;6.00;;;;;;;13.04;22.12;102949.63;5074230;28;20055;-74
2022/03/21 09:24:17;;;;;;;9.07;6.10;;;;;;;12.46;21.43;102945.72;5092381;28;20044;-75
2022/03/21 09:26:45;;;;;;;7.25;5.90;;;;;;;12.61;23.41;102948.03;5093126;28;20051;-75
2022/03/21 09:29:14;;;;;;;7.30;5.70;;;;;;;12.66;22.79;102939.88;5093003;28;20036;-75
2022/03/21 09:31:49;;;;;;;10.07;6.70;;;;;;;12.55;22.13;102933.31;5092443;28;20047;-75
2022/03/21 09:34:44;;;;;;;10.02;6.30;;;;;;;13.27;22.73;102936.97;5075340;28;20051;-74
2022/03/21 09:37:32;;;;;;;8.07;6.13;;;;;;;13.60;20.98;102931.06;5099500;28;20051;-74
2022/03/21 09:40:00;;;;;;;9.98;6.30;;;;;;;13.79;20.83;102935.31;5092257;28;20411;-74
2022/03/21 09:42:39;;;;;;;7.85;5.45;;;;;;;13.39;21.57;102927.84;5092753;28;20491;-74
2022/03/21 09:45:08;;;;;;;9.25;6.70;;;;;;;13.57;20.82;102929.63;5091820;28;20056;-74
2022/03/21 09:50:24;;;;;;;6.50;5.57;;;;;;;13.45;21.96;102924.16;5092277;28;20040;-74
2022/03/21 09:52:53;;;;;;;8.75;6.03;;;;;;;13.23;23.13;102918.41;5091621;28;20051;-74
2022/03/21 09:55:21;;;;;;;8.35;5.97;;;;;;;13.04;20.79;102929.53;5091687;28;20056;-74
2022/03/21 09:57:49;;;;;;;6.72;5.55;;;;;;;12.84;23.27;102917.00;5091699;28;20056;-74
2022/03/21 10:00:17;;;;;;;11.10;5.97;;;;;;;13.48;21.97;102923.66;5091528;28;20055;-74
2022/03/21 10:02:45;;;;;;;8.45;6.35;;;;;;;14.00;22.47;102924.72;5092227;28;20043;-74
2022/03/21 10:05:43;;;;;;;7.75;5.97;;;;;;;14.41;20.70;102930.16;5091770;28;20490;-74
2022/03/21 10:08:11;;;;;;;10.07;6.43;;;;;;;13.74;21.03;102923.38;5078851;28;20048;-74
2022/03/21 10:10:39;;;;;;;8.40;5.90;;;;;;;14.13;21.19;102926.31;5091072;28;20051;-74
2022/03/21 10:13:12;;;;;;;8.80;6.70;;;;;;;14.06;21.13;102922.91;5090586;28;20060;-74
2022/03/21 10:15:40;;;;;;;9.18;6.30;;;;;;;13.96;22.67;102916.13;5091354;28;20384;-74
2022/03/21 10:18:09;;;;;;;11.38;7.18;;;;;;;14.03;20.34;102912.38;5091237;28;20052;-74
2022/03/21 10:20:39;;;;;;;10.63;6.85;;;;;;;14.45;21.09;102909.28;5091169;28;20410;-74
2022/03/21 10:23:22;;;;;;;9.23;6.50;;;;;;;14.42;20.13;102918.03;5091936;28;20044;-74
2022/03/21 10:25:50;;;;;;;9.18;7.05;;;;;;;14.56;20.35;102906.72;5092147;28;20055;-74
2022/03/21 10:28:39;;;;;;;10.80;6.75;;;;;;;14.58;20.30;102910.88;5091881;28;20403;-74
2022/03/21 10:31:07;;;;;;;10.15;6.43;;;;;;;14.75;21.90;102902.63;5092004;28;20044;-74
2022/03/21 10:33:35;;;;;;;9.55;6.95;;;;;;;14.99;21.66;102905.19;5091785;28;20041;-74
2022/03/21 10:36:09;;;;;;;10.25;7.07;;;;;;;15.03;21.42;102900.00;5091230;28;20051;-74
2022/03/21 10:38:38;;;;;;;10.18;7.18;;;;;;;15.68;20.91;102902.22;5090965;28;20059;-74
2022/03/21 10:41:34;;;;;;;11.60;6.60;;;;;;;16.04;19.53;102907.34;5090794;28;20411;-74
2022/03/21 10:44:04;;;;;;;8.63;6.63;;;;;;;15.10;22.42;102899.84;5090786;28;20486;-74
2022/03/21 10:46:33;;;;;;;11.40;7.22;;;;;;;15.50;20.41;102895.94;5090594;28;20047;-74
2022/03/21 10:49:06;;;;;;;10.75;7.30;;;;;;;14.72;20.03;102897.59;5072792;28;20040;-74
2022/03/21 10:51:56;;;;;;;9.70;7.10;;;;;;;15.07;21.71;102898.44;5089972;28;20088;-73
2022/03/21 10:54:39;;;;;;;10.57;7.72;;;;;;;15.11;21.51;102896.00;5078955;28;20063;-73
2022/03/21 10:57:26;;;;;;;10.00;7.22;;;;;;;15.13;22.58;102891.06;5088829;28;20056;-74
2022/03/21 11:00:18;;;;;;;10.32;7.40;;;;;;;15.66;22.06;102891.47;5089647;28;20036;-73
2022/03/21 11:03:05;;;;;;;9.40;6.82;;;;;;;15.98;20.08;102887.13;5088969;28;20048;-73
2022/03/21 11:05:36;;;;;;;11.38;7.63;;;;;;;16.07;20.85;102891.09;5089791;28;20047;-74
2022/03/21 11:08:07;;;;;;;12.32;7.30;;;;;;;15.31;21.09;102876.94;5089593;28;20522;-73
2022/03/21 11:10:36;;;;;;;12.10;7.68;;;;;;;14.76;20.80;102879.50;5089410;28;20052;-73
2022/03/21 11:13:06;;;;;;;11.18;8.07;;;;;;;15.05;20.85;102876.63;5070570;28;20036;-74
2022/03/21 11:15:35;;;;;;;13.77;8.40;;;;;;;15.02;20.13;102870.78;5088002;28;20072;-73
2022/03/21 11:18:05;;;;;;;11.02;7.78;;;;;;;15.14;21.88;102873.41;5088824;28;20059;-73
2022/03/21 11:20:33;;;;;;;10.95;7.60;;;;;;;15.68;21.23;102874.63;5090215;28;20380;-73
2022/03/21 11:23:02;;;;;;;13.65;7.53;;;;;;;15.81;20.20;102865.13;5093269;28;20040;-74
2022/03/21 11:25:34;;;;;;;9.98;7.43;;;;;;;16.12;20.66;102865.44;5090691;28;20055;-74
2022/03/21 11:28:17;;;;;;;13.20;7.95;;;;;;;15.99;21.17;102856.50;5083786;28;20048;-73
2022/03/21 11:30:57;;;;;;;11.32;7.72;;;;;;;15.83;21.46;102858.25;5084084;28;20063;-74
2022/03/21 11:33:27;;;;;;;10.98;7.57;;;;;;;16.23;20.67;102853.41;5092673;28;20040;-74
2022/03/21 11:36:04;;;;;;;9.95;8.02;;;;;;;15.78;21.27;102852.66;5091306;28;20067;-74
2022/03/21 11:38:45;;;;;;;11.00;8.00;;;;;;;16.44;21.13;102856.34;5093176;28;20051;-75
2022/03/21 11:41:21;;;;;;;14.10;8.40;;;;;;;16.73;19.56;102847.72;5093900;28;20047;-74
2022/03/21 11:44:04;;;;;;;11.18;7.93;;;;;;;16.30;20.32;102846.81;5091909;28;20048;-74
2022/03/21 11:46:38;;;;;;;14.40;8.30;;;;;;;16.12;20.58;102855.25;5093874;28;20056;-74
2022/03/21 11:49:19;;;;;;;;;;;;;;;16.25;19.66;102836.56;5092506;28;20040;-74
2022/03/21 11:51:55;;;;;;;13.55;8.73;;;;;;;16.02;19.50;102833.06;5093281;28;19920;-73
2022/03/21 11:54:28;;;;;;;14.05;8.82;;;;;;;16.33;20.91;102833.31;5071505;28;20060;-74
2022/03/21 11:56:57;;;;;;;10.77;8.38;;;;;;;16.27;20.53;102812.25;5092297;28;20392;-74
2022/03/21 11:59:31;;;;;;;13.95;8.73;;;;;;;16.37;20.57;102815.13;5093840;28;20048;-73
2022/03/21 12:02:13;;;;;;;9.98;8.23;;;;;;;16.10;20.64;102823.47;5093432;28;20046;-73
2022/03/21 12:04:42;;;;;;;14.48;8.60;;;;;;;16.34;19.27;102810.13;5093223;28;20776;-73